Jena Marie C. — WDD4969 — position and weather

sailwx.info

Track history (hours):
 
Tides and Currents Weather Stations Pressure Air Temp Water Temp Dewpoint Dewpoint Depression Visibility Wind Speed Wind Dir Waves Ship Positions

Jena Marie C.

More information available from US FCC via Universal Licensing System and Coast Guard Vessel Documentation Center.

Last reported at 2014-Sep-18 07:19 UTC. Time now 2014-Sep-19 17:53 UTC.
Position N 29°39' W 090°17'.

Length 19 m; draft 2.5 m.

Type: Towing. MMSI: 367151880.

Date/timePositionNaut miles runAvg speedWind from/ knotsBaromVisibWave heightAir tempDewpointWater temp
2014-Sep-18 07:19N 29°39' W 090°17'29 1.0
2014-Sep-17 03:29N 29°32' W 090°49'6 5.9
2014-Sep-17 02:33N 29°33' W 090°55'6 5.7
2014-Sep-17 01:33N 29°37' W 090°60'5 5.4
2014-Sep-17 00:33N 29°38' W 091°06'4 4.3
2014-Sep-16 23:33N 29°41' W 091°10'3 3.5
2014-Sep-16 22:33N 29°40' W 091°14'5 5.4
2014-Sep-16 21:33N 29°38' W 091°19'18 1.6
2014-Sep-16 10:06N 29°46' W 091°38'4 6.4
2014-Sep-16 09:27N 29°44' W 091°34'6 7.0
2014-Sep-16 08:33N 29°41' W 091°28'7 7.0
2014-Sep-16 07:33N 29°38' W 091°20'5 5.5
2014-Sep-16 06:33N 29°40' W 091°14'5 4.7
2014-Sep-16 05:33N 29°41' W 091°09'6 5.8
2014-Sep-16 04:33N 29°37' W 091°04'6 5.4
2014-Sep-16 03:27N 29°35' W 090°58'  
Track history (hours):
 
Tides and Currents Weather Stations Pressure Air Temp Water Temp Dewpoint Dewpoint Depression Visibility Wind Speed Wind Dir Waves Ship Positions

Jena Marie C.

More information available from US FCC via Universal Licensing System and Coast Guard Vessel Documentation Center.

Last reported at 2014-Sep-18 07:19 UTC. Time now 2014-Sep-19 17:53 UTC.
Position N 29°39' W 090°17'.

Length 19 m; draft 2.5 m.

Type: Towing. MMSI: 367151880.

Date/timePositionNaut miles runAvg speedWind from/ knotsBaromVisibWave heightAir tempDewpointWater temp
2014-Sep-18 07:19N 29°39' W 090°17'29 1.0
2014-Sep-17 03:29N 29°32' W 090°49'6 5.9
2014-Sep-17 02:33N 29°33' W 090°55'6 5.7
2014-Sep-17 01:33N 29°37' W 090°60'5 5.4
2014-Sep-17 00:33N 29°38' W 091°06'4 4.3
2014-Sep-16 23:33N 29°41' W 091°10'3 3.5
2014-Sep-16 22:33N 29°40' W 091°14'5 5.4
2014-Sep-16 21:33N 29°38' W 091°19'18 1.6
2014-Sep-16 10:06N 29°46' W 091°38'4 6.4
2014-Sep-16 09:27N 29°44' W 091°34'6 7.0
2014-Sep-16 08:33N 29°41' W 091°28'7 7.0
2014-Sep-16 07:33N 29°38' W 091°20'5 5.5
2014-Sep-16 06:33N 29°40' W 091°14'5 4.7
2014-Sep-16 05:33N 29°41' W 091°09'6 5.8
2014-Sep-16 04:33N 29°37' W 091°04'6 5.4
2014-Sep-16 03:27N 29°35' W 090°58'  

Dump ship's entire track history